Terminal Aerodrome Forecast
Issued by NWS Wilmington, NC

Home | Current Version | Previous Version | Text Only | Print | Product List | Glossary On
Versions: 1 2 3 4 5 6 7 8
000
FTUS42 KILM 281100
TAFFLO
TAF
KFLO 281120Z 2812/2912 VRB02KT P6SM VCSH BKN040 BKN120
     FM281400 22007KT P6SM BKN025 BKN050
     FM290300 23003KT 5SM BR SCT005 BKN025
     FM290600 36004KT 2SM -RA BR BKN006=

USA.gov is the U.S. government's official web portal to all federal, state and local government web resources and services.